Time;durP1;ratioP1;P1;durP2;ratioP2;P2;SDS_P1;SDS_P2;PMS_P1;PMS_P2;Temp;Humidity;BMP_temperature;BMP_pressure;BME280_temperature;BME280_humidity;BME280_pressure;Samples;Min_cycle;Max_cycle;Signal;HPM_P1;HPM_P2
2023/06/13 00:00:51;;;;;;;1999.90;999.90;;;13.30;57.70;;;;;;5023313;28;20061;-87
2023/06/13 00:03:19;;;;;;;1999.90;999.90;;;13.20;58.00;;;;;;5039248;28;20444;-87
2023/06/13 00:05:46;;;;;;;1999.90;999.90;;;13.10;58.00;;;;;;5032645;28;20026;-88
2023/06/13 00:08:21;;;;;;;1999.90;999.90;;;13.30;57.90;;;;;;5042910;28;20032;-87
2023/06/13 00:10:50;;;;;;;1999.90;999.90;;;13.30;57.80;;;;;;5039935;28;20030;-88
2023/06/13 00:13:16;;;;;;;1999.90;999.90;;;13.20;57.90;;;;;;5018922;28;20496;-89
2023/06/13 00:16:09;;;;;;;1999.90;999.90;;;13.10;58.40;;;;;;5037906;28;20560;-86
2023/06/13 00:18:37;;;;;;;1999.90;999.90;;;13.20;58.10;;;;;;5032764;28;20041;-87
2023/06/13 00:21:03;;;;;;;1999.90;999.90;;;13.10;58.20;;;;;;5039427;28;20045;-88
2023/06/13 00:23:29;;;;;;;1999.90;999.90;;;13.10;58.00;;;;;;5039375;28;20052;-88
2023/06/13 00:25:55;;;;;;;1999.90;999.90;;;13.10;58.40;;;;;;5034376;28;20489;-88
2023/06/13 00:28:21;;;;;;;1999.90;999.90;;;13.00;58.50;;;;;;5021864;28;20039;-86
2023/06/13 00:30:46;;;;;;;1999.90;999.90;;;13.30;57.40;;;;;;5034074;28;20426;-87
2023/06/13 00:33:16;;;;;;;1999.90;999.90;;;13.30;57.20;;;;;;5038853;28;20037;-86
2023/06/13 00:35:42;;;;;;;1999.90;999.90;;;13.30;57.20;;;;;;5037218;28;20580;-88
2023/06/13 00:38:08;;;;;;;1999.90;999.90;;;13.30;57.20;;;;;;5032530;28;20037;-88
2023/06/13 00:40:34;;;;;;;1999.90;999.90;;;13.30;57.00;;;;;;5040494;28;20086;-87
2023/06/13 00:42:59;;;;;;;1999.90;999.90;;;13.30;57.00;;;;;;5040984;28;20116;-87
2023/06/13 00:45:27;;;;;;;1999.90;999.90;;;13.30;57.10;;;;;;5034511;28;20037;-87
2023/06/13 00:48:03;;;;;;;1999.90;999.90;;;13.20;57.80;;;;;;5038780;28;20021;-87
2023/06/13 00:50:34;;;;;;;1999.90;999.90;;;13.20;57.60;;;;;;5035520;28;20076;-86
2023/06/13 00:53:08;;;;;;;1999.90;999.90;;;13.10;58.00;;;;;;5036103;28;20029;-89
2023/06/13 00:55:34;;;;;;;1999.90;999.90;;;13.20;57.80;;;;;;5038546;28;20029;-88
2023/06/13 00:58:06;;;;;;;1999.90;999.90;;;13.10;58.50;;;;;;5015528;28;20452;-87
2023/06/13 01:00:33;;;;;;;1999.90;999.90;;;13.20;58.00;;;;;;5040937;28;20045;-87
2023/06/13 01:02:59;;;;;;;1999.90;999.90;;;13.00;58.60;;;;;;5031702;28;20028;-86
2023/06/13 01:05:28;;;;;;;1999.90;999.90;;;13.00;58.40;;;;;;5032182;28;20033;-87
2023/06/13 01:07:58;;;;;;;1999.90;999.90;;;13.00;58.70;;;;;;5036052;28;20049;-89
2023/06/13 01:10:28;;;;;;;1999.90;999.90;;;12.90;59.00;;;;;;5033383;28;20059;-90
2023/06/13 01:13:13;;;;;;;1999.90;999.90;;;12.80;59.30;;;;;;5037769;28;20079;-87
2023/06/13 01:15:51;;;;;;;1999.90;999.90;;;12.70;60.30;;;;;;5030446;28;20415;-86
2023/06/13 01:18:22;;;;;;;1999.90;999.90;;;12.60;60.50;;;;;;5029819;28;20033;-86
2023/06/13 01:20:56;;;;;;;1999.90;999.90;;;12.50;60.80;;;;;;5034456;28;20053;-85
2023/06/13 01:23:49;;;;;;;1999.90;999.90;;;12.50;60.50;;;;;;5032840;28;20041;-87
2023/06/13 01:26:48;;;;;;;1999.90;999.90;;;12.50;61.50;;;;;;5037056;28;20040;-87
2023/06/13 01:29:15;;;;;;;1999.90;999.90;;;12.40;61.30;;;;;;5035114;28;20025;-86
2023/06/13 01:31:42;;;;;;;1999.90;999.90;;;12.30;61.80;;;;;;5021276;28;20404;-87
2023/06/13 01:34:09;;;;;;;1999.90;999.90;;;12.30;61.80;;;;;;5032156;28;20067;-87
2023/06/13 01:36:35;;;;;;;1999.90;999.90;;;12.20;62.80;;;;;;5029274;28;20404;-88
2023/06/13 01:39:01;;;;;;;1999.90;999.90;;;12.20;62.70;;;;;;5035228;28;20094;-87
2023/06/13 01:41:27;;;;;;;1999.90;999.90;;;12.10;62.70;;;;;;5033279;28;20440;-88
2023/06/13 01:43:52;;;;;;;1999.90;999.90;;;12.00;63.40;;;;;;5032367;28;20112;-86
2023/06/13 01:46:29;;;;;;;1999.90;999.90;;;12.00;63.80;;;;;;5036386;28;20537;-88
2023/06/13 01:49:10;;;;;;;1999.90;999.90;;;11.90;64.10;;;;;;5032294;28;20029;-87
2023/06/13 01:51:35;;;;;;;;;;;11.90;64.30;;;;;;5040096;28;20060;-87
2023/06/13 01:54:05;;;;;;;1999.90;999.90;;;11.90;64.10;;;;;;5035615;28;19920;-88
2023/06/13 01:56:33;;;;;;;1999.90;999.90;;;12.00;63.80;;;;;;5018634;28;20057;-89
2023/06/13 01:59:10;;;;;;;1999.90;999.90;;;11.90;63.90;;;;;;5039847;28;20291;-88
2023/06/13 02:01:38;;;;;;;1999.90;999.90;;;11.80;64.50;;;;;;5033879;28;20444;-88
2023/06/13 02:04:04;;;;;;;1999.90;999.90;;;11.70;65.00;;;;;;5034696;28;20029;-88
2023/06/13 02:06:30;;;;;;;1999.90;999.90;;;11.70;65.50;;;;;;5034705;28;20029;-87
2023/06/13 02:08:56;;;;;;;1999.90;999.90;;;11.60;65.30;;;;;;5031042;28;20386;-88
2023/06/13 02:11:22;;;;;;;1999.90;999.90;;;11.70;65.10;;;;;;5040184;28;20036;-87
2023/06/13 02:13:48;;;;;;;1999.90;999.90;;;11.70;65.10;;;;;;5034600;28;20087;-87
2023/06/13 02:16:14;;;;;;;1999.90;999.90;;;11.60;65.40;;;;;;5040152;28;20032;-86
2023/06/13 02:18:40;;;;;;;1999.90;999.90;;;11.60;65.70;;;;;;5037079;28;20059;-87
2023/06/13 02:21:07;;;;;;;1999.90;999.90;;;11.60;65.20;;;;;;5030107;28;20505;-87
2023/06/13 02:23:32;;;;;;;1999.90;999.90;;;11.60;65.60;;;;;;5033819;28;20088;-87
2023/06/13 02:25:58;;;;;;;1999.90;999.90;;;11.60;65.50;;;;;;5035433;28;20481;-87
2023/06/13 02:28:24;;;;;;;1999.90;999.90;;;11.50;65.80;;;;;;5033998;28;20033;-87
2023/06/13 02:30:50;;;;;;;1999.90;999.90;;;11.40;66.00;;;;;;5038672;28;20570;-88
2023/06/13 02:33:15;;;;;;;288.42;271.60;;;11.40;66.10;;;;;;5036113;28;20087;-88
2023/06/13 02:35:42;;;;;;;1561.47;807.63;;;11.20;66.80;;;;;;5031467;28;20034;-87
2023/06/13 02:38:08;;;;;;;400.67;379.80;;;11.10;67.60;;;;;;5029667;28;20107;-87
2023/06/13 02:40:37;;;;;;;318.10;299.67;;;11.00;68.00;;;;;;5030786;28;20531;-88
2023/06/13 02:43:03;;;;;;;229.38;216.98;;;11.00;67.70;;;;;;5033539;28;20125;-88
2023/06/13 02:45:29;;;;;;;1573.72;819.35;;;11.00;68.10;;;;;;5030593;28;20075;-88
2023/06/13 02:47:55;;;;;;;317.83;300.67;;;11.00;68.20;;;;;;5031404;28;20030;-86
2023/06/13 02:50:21;;;;;;;1576.93;822.47;;;10.90;68.90;;;;;;5035720;28;20131;-87
2023/06/13 02:52:50;;;;;;;318.95;301.45;;;10.90;68.70;;;;;;5032520;28;20040;-88
2023/06/13 02:55:17;;;;;;;342.98;325.17;;;10.90;68.50;;;;;;5034275;28;20497;-87
2023/06/13 02:57:43;;;;;;;358.02;339.08;;;11.00;69.20;;;;;;5018617;28;20028;-87
2023/06/13 03:00:11;;;;;;;375.35;355.60;;;10.90;69.10;;;;;;5030508;28;20391;-90
2023/06/13 03:02:37;;;;;;;355.33;337.35;;;10.90;69.10;;;;;;5040027;28;20044;-89
2023/06/13 03:05:09;;;;;;;415.00;393.55;;;10.80;69.50;;;;;;5036348;28;20082;-86
2023/06/13 03:07:35;;;;;;;374.08;356.17;;;10.70;69.60;;;;;;5036561;28;20526;-87
2023/06/13 03:10:04;;;;;;;433.73;413.48;;;10.70;70.20;;;;;;5039471;28;20041;-87
2023/06/13 03:12:30;;;;;;;464.90;442.90;;;10.60;70.60;;;;;;5033704;28;20033;-87
2023/06/13 03:14:56;;;;;;;427.20;407.02;;;10.50;71.20;;;;;;5019517;28;20099;-87
2023/06/13 03:17:22;;;;;;;382.42;364.73;;;10.50;71.30;;;;;;5038138;28;20378;-87
2023/06/13 03:19:49;;;;;;;450.33;426.85;;;10.50;71.40;;;;;;5031964;28;20091;-87
2023/06/13 03:22:16;;;;;;;522.22;494.50;;;10.50;71.60;;;;;;5036881;28;20037;-87
2023/06/13 03:24:42;;;;;;;478.45;454.50;;;10.40;72.20;;;;;;5022137;28;20057;-89
2023/06/13 03:27:09;;;;;;;433.75;415.35;;;10.30;72.90;;;;;;5036620;28;20033;-88
2023/06/13 03:29:35;;;;;;;454.52;435.02;;;10.40;73.10;;;;;;5037303;28;20078;-89
2023/06/13 03:32:01;;;;;;;491.85;469.73;;;10.50;72.60;;;;;;5033154;28;20497;-88
2023/06/13 03:34:28;;;;;;;405.17;387.63;;;10.30;72.90;;;;;;5039148;28;20045;-87
2023/06/13 03:36:54;;;;;;;342.13;328.65;;;10.40;73.70;;;;;;5034510;28;20029;-86
2023/06/13 03:39:20;;;;;;;411.67;394.77;;;10.30;73.70;;;;;;5035437;28;20029;-87
2023/06/13 03:41:46;;;;;;;398.15;381.65;;;10.30;74.30;;;;;;5040695;28;20025;-89
2023/06/13 03:44:12;;;;;;;447.20;427.63;;;10.20;74.50;;;;;;5035150;28;20040;-87
2023/06/13 03:46:37;;;;;;;303.75;291.85;;;10.20;74.70;;;;;;5036823;28;20527;-87
2023/06/13 03:49:03;;;;;;;284.48;273.77;;;10.30;74.50;;;;;;5016645;28;20493;-88
2023/06/13 03:51:29;;;;;;;387.05;371.00;;;10.30;74.40;;;;;;5036193;28;20378;-86
2023/06/13 03:53:55;;;;;;;324.80;311.35;;;10.50;73.80;;;;;;5024626;28;20128;-86
2023/06/13 03:56:20;;;;;;;316.30;303.48;;;10.50;73.90;;;;;;5036570;28;20167;-89
2023/06/13 03:58:46;;;;;;;261.92;252.27;;;10.50;73.90;;;;;;5036822;28;20079;-88
2023/06/13 04:01:12;;;;;;;280.48;270.05;;;10.60;73.30;;;;;;5044022;28;20024;-88
2023/06/13 04:03:41;;;;;;;387.02;370.83;;;10.60;73.50;;;;;;5033793;28;20029;-87
2023/06/13 04:06:07;;;;;;;275.65;265.23;;;10.70;73.50;;;;;;5036035;28;20508;-86
2023/06/13 04:08:32;;;;;;;328.13;314.60;;;10.60;73.70;;;;;;5037333;28;20060;-87
2023/06/13 04:10:58;;;;;;;237.00;228.10;;;10.70;73.70;;;;;;5018503;28;20041;-87
2023/06/13 04:13:23;;;;;;;220.05;211.50;;;10.70;73.50;;;;;;5040757;28;20056;-86
2023/06/13 04:15:50;;;;;;;301.23;289.50;;;10.70;73.40;;;;;;5033009;28;20037;-86
2023/06/13 04:18:18;;;;;;;282.65;271.65;;;10.70;73.50;;;;;;5031844;28;20037;-87
2023/06/13 04:20:44;;;;;;;318.70;306.08;;;10.90;72.50;;;;;;5035718;28;20492;-88
2023/06/13 04:23:10;;;;;;;199.60;191.98;;;10.80;73.10;;;;;;5032234;28;20068;-88
2023/06/13 04:25:36;;;;;;;221.57;213.07;;;10.80;73.00;;;;;;5034730;28;20057;-89
2023/06/13 04:28:02;;;;;;;214.90;206.93;;;11.00;72.30;;;;;;5013635;28;20541;-87
2023/06/13 04:30:28;;;;;;;205.20;197.18;;;11.00;72.50;;;;;;5031932;28;20041;-87
2023/06/13 04:32:57;;;;;;;288.23;276.63;;;11.10;72.40;;;;;;5038139;28;20068;-87
2023/06/13 04:35:23;;;;;;;250.18;240.05;;;11.00;72.90;;;;;;5017850;28;20041;-86
2023/06/13 04:37:51;;;;;;;318.90;305.20;;;11.00;73.20;;;;;;5033264;28;20056;-86
2023/06/13 04:40:18;;;;;;;222.95;214.68;;;11.00;73.00;;;;;;5040764;28;20064;-86
2023/06/13 04:42:47;;;;;;;372.25;356.88;;;11.10;72.70;;;;;;5033450;28;20029;-86
2023/06/13 04:45:13;;;;;;;278.30;266.95;;;11.20;73.00;;;;;;5032953;28;20025;-86
2023/06/13 04:47:39;;;;;;;244.25;235.00;;;11.20;72.30;;;;;;5021312;28;20033;-87
2023/06/13 04:50:06;;;;;;;264.27;254.45;;;11.30;72.80;;;;;;5031411;28;20452;-89
2023/06/13 04:52:35;;;;;;;219.85;211.65;;;11.30;72.40;;;;;;5022724;28;20049;-88
2023/06/13 04:55:02;;;;;;;230.18;221.75;;;11.40;71.70;;;;;;5031255;28;20033;-89
2023/06/13 04:57:28;;;;;;;240.93;232.13;;;11.50;71.50;;;;;;5033718;28;20515;-89
2023/06/13 04:59:58;;;;;;;224.10;215.68;;;11.50;71.80;;;;;;5038148;28;20045;-89
2023/06/13 05:02:25;;;;;;;310.40;297.48;;;11.50;72.20;;;;;;5031663;28;20036;-92
2023/06/13 05:04:52;;;;;;;203.23;195.63;;;11.50;72.30;;;;;;5031165;28;20457;-90
2023/06/13 05:07:19;;;;;;;227.75;219.15;;;11.60;71.80;;;;;;5033170;28;20057;-89
2023/06/13 05:09:45;;;;;;;233.95;224.77;;;11.60;71.40;;;;;;5033066;28;20119;-89
2023/06/13 05:12:12;;;;;;;302.10;289.52;;;11.70;71.30;;;;;;5034471;28;20798;-90
2023/06/13 05:14:40;;;;;;;221.30;212.43;;;11.70;71.20;;;;;;5029919;28;20025;-86
2023/06/13 05:17:06;;;;;;;263.17;250.60;;;11.90;71.00;;;;;;5030778;28;20031;-89
2023/06/13 05:19:34;;;;;;;262.98;253.32;;;12.00;70.20;;;;;;5031105;28;20105;-89
2023/06/13 05:22:02;;;;;;;167.68;160.82;;;12.00;70.20;;;;;;5034449;28;20041;-89
2023/06/13 05:24:28;;;;;;;257.27;247.52;;;12.10;70.00;;;;;;5039069;28;20036;-88
2023/06/13 05:26:54;;;;;;;257.80;247.00;;;12.10;69.30;;;;;;5031828;28;20029;-86
2023/06/13 05:29:19;;;;;;;268.27;258.05;;;12.20;69.40;;;;;;5039067;28;20071;-87
2023/06/13 05:31:45;;;;;;;169.75;163.35;;;12.30;69.40;;;;;;5031268;28;20029;-85
2023/06/13 05:34:11;;;;;;;259.02;249.15;;;12.50;68.20;;;;;;5024392;28;20068;-90
2023/06/13 05:36:36;;;;;;;324.38;310.40;;;12.60;68.90;;;;;;5027216;28;20030;-87
2023/06/13 05:39:02;;;;;;;217.77;209.57;;;12.70;67.70;;;;;;5033233;28;20069;-90
2023/06/13 05:41:27;;;;;;;243.90;234.68;;;12.80;67.40;;;;;;5031014;28;20044;-88
2023/06/13 05:43:53;;;;;;;206.55;198.57;;;12.90;66.90;;;;;;5034971;28;20029;-84
2023/06/13 05:46:19;;;;;;;222.88;214.35;;;13.00;66.00;;;;;;5034614;28;20113;-84
2023/06/13 05:48:45;;;;;;;196.52;189.00;;;13.20;65.70;;;;;;5033456;28;20112;-85
2023/06/13 05:51:10;;;;;;;213.82;205.63;;;13.30;64.90;;;;;;5034975;28;20025;-83
2023/06/13 05:53:36;;;;;;;268.60;258.55;;;13.50;64.80;;;;;;5032899;28;20500;-83
2023/06/13 05:56:02;;;;;;;278.67;268.15;;;13.50;62.50;;;;;;5036546;28;20026;-87
2023/06/13 05:58:27;;;;;;;191.65;184.45;;;13.60;62.00;;;;;;5032739;28;20449;-81
2023/06/13 06:00:53;;;;;;;225.57;216.68;;;13.60;60.10;;;;;;5029957;28;20370;-80
2023/06/13 06:03:19;;;;;;;327.95;314.63;;;13.70;59.70;;;;;;5037871;28;20036;-80
2023/06/13 06:05:45;;;;;;;324.45;311.90;;;13.80;60.60;;;;;;5032967;28;20064;-86
2023/06/13 06:08:12;;;;;;;354.00;339.55;;;13.90;61.30;;;;;;5035384;28;20021;-84
2023/06/13 06:10:38;;;;;;;511.05;487.80;;;14.00;60.40;;;;;;5019016;28;20028;-84
2023/06/13 06:13:04;;;;;;;525.17;500.70;;;14.20;58.30;;;;;;5031994;28;20029;-83
2023/06/13 06:15:32;;;;;;;528.67;501.90;;;14.20;58.50;;;;;;5047686;28;20026;-79
2023/06/13 06:17:58;;;;;;;553.83;527.30;;;14.20;57.80;;;;;;5033252;28;20382;-86
2023/06/13 06:20:23;;;;;;;354.08;336.58;;;14.30;58.40;;;;;;5030970;28;20045;-80
2023/06/13 06:22:49;;;;;;;434.33;411.65;;;14.50;56.80;;;;;;5035995;28;20052;-80
2023/06/13 06:25:19;;;;;;;443.38;419.65;;;14.60;57.70;;;;;;5033286;28;20061;-80
2023/06/13 06:27:47;;;;;;;704.55;444.30;;;14.70;56.20;;;;;;5036526;28;20082;-81
2023/06/13 06:30:13;;;;;;;1999.90;999.90;;;14.60;56.00;;;;;;5028918;28;20112;-83
2023/06/13 06:32:39;;;;;;;1999.90;999.90;;;14.80;54.80;;;;;;5029410;28;20049;-80
2023/06/13 06:35:06;;;;;;;1999.90;999.90;;;15.00;55.70;;;;;;5041085;28;20053;-81
2023/06/13 06:37:32;;;;;;;1999.90;999.90;;;15.20;56.40;;;;;;5034040;28;20029;-84
2023/06/13 06:39:58;;;;;;;279.55;264.48;;;15.30;54.20;;;;;;5051953;28;20405;-81
2023/06/13 06:42:25;;;;;;;1999.90;999.90;;;15.20;56.50;;;;;;5043080;28;20038;-81
2023/06/13 06:44:51;;;;;;;1999.90;999.90;;;15.50;54.10;;;;;;5033635;28;20519;-87
2023/06/13 06:47:17;;;;;;;1999.90;999.90;;;15.60;53.20;;;;;;5040000;28;20033;-85
2023/06/13 06:49:42;;;;;;;1999.90;999.90;;;15.50;52.70;;;;;;5054723;28;20029;-83
2023/06/13 06:52:09;;;;;;;1999.90;999.90;;;15.60;53.10;;;;;;5034712;28;20520;-86
2023/06/13 06:54:35;;;;;;;1999.90;999.90;;;15.70;52.80;;;;;;5038314;28;20431;-82
2023/06/13 06:57:04;;;;;;;1999.90;999.90;;;15.80;52.20;;;;;;5036695;28;20034;-82
2023/06/13 06:59:29;;;;;;;1999.90;999.90;;;15.70;50.50;;;;;;5035573;28;20040;-81
2023/06/13 07:01:56;;;;;;;1999.90;999.90;;;15.90;51.40;;;;;;5037440;28;20432;-82
2023/06/13 07:04:22;;;;;;;1999.90;999.90;;;15.90;49.10;;;;;;5033870;28;20026;-82
2023/06/13 07:06:48;;;;;;;1999.90;999.90;;;15.90;50.80;;;;;;5033927;28;20060;-81
2023/06/13 07:09:14;;;;;;;1999.90;999.90;;;15.90;49.20;;;;;;5042523;28;20060;-83
2023/06/13 07:11:40;;;;;;;1999.90;999.90;;;16.20;51.20;;;;;;5033776;28;20052;-83
2023/06/13 07:14:05;;;;;;;1999.90;999.90;;;16.50;49.10;;;;;;5038474;28;20531;-83
2023/06/13 07:16:31;;;;;;;1999.90;999.90;;;16.40;49.60;;;;;;5039468;28;20045;-79
2023/06/13 07:18:57;;;;;;;1999.90;999.90;;;16.60;50.10;;;;;;5037517;28;20037;-80
2023/06/13 07:21:22;;;;;;;1999.90;999.90;;;16.60;48.90;;;;;;5034793;28;20057;-81
2023/06/13 07:23:48;;;;;;;1999.90;999.90;;;16.60;47.70;;;;;;5037116;28;20034;-82
2023/06/13 07:26:14;;;;;;;1999.90;999.90;;;16.60;47.20;;;;;;5017084;28;20048;-85
2023/06/13 07:28:40;;;;;;;1999.90;999.90;;;16.70;46.60;;;;;;5041039;28;20056;-82
2023/06/13 07:31:06;;;;;;;1999.90;999.90;;;16.70;47.20;;;;;;5033120;28;20036;-81
2023/06/13 07:33:31;;;;;;;1999.90;999.90;;;16.70;46.70;;;;;;5039945;28;20021;-82
2023/06/13 07:35:57;;;;;;;1999.90;999.90;;;17.00;46.40;;;;;;5036385;28;20030;-80
2023/06/13 07:38:24;;;;;;;1999.90;999.90;;;17.10;46.60;;;;;;5034620;28;20033;-82
2023/06/13 07:40:50;;;;;;;1999.90;999.90;;;17.30;46.60;;;;;;5038748;28;20076;-82
2023/06/13 07:43:15;;;;;;;1999.90;999.90;;;17.20;46.50;;;;;;5034483;28;20124;-85
2023/06/13 07:45:41;;;;;;;1999.90;999.90;;;17.30;44.70;;;;;;5035206;28;20507;-81
2023/06/13 07:48:06;;;;;;;1999.90;999.90;;;17.60;45.30;;;;;;5038300;28;20037;-82
2023/06/13 07:50:34;;;;;;;1999.90;999.90;;;17.80;45.50;;;;;;5034514;28;20033;-80
2023/06/13 07:53:00;;;;;;;1999.90;999.90;;;17.80;43.90;;;;;;5042523;28;20035;-81
2023/06/13 07:55:26;;;;;;;1999.90;999.90;;;17.90;43.90;;;;;;5018750;28;20041;-80
2023/06/13 07:57:52;;;;;;;1999.90;999.90;;;17.60;42.60;;;;;;5037397;28;20033;-80
2023/06/13 08:00:18;;;;;;;1999.90;999.90;;;17.60;42.70;;;;;;5021628;28;20040;-83
2023/06/13 08:02:45;;;;;;;1999.90;999.90;;;17.70;42.00;;;;;;5032284;28;20033;-82
2023/06/13 08:05:12;;;;;;;1999.90;999.90;;;17.60;42.70;;;;;;5041853;28;20488;-81
2023/06/13 08:07:38;;;;;;;1999.90;999.90;;;17.80;42.20;;;;;;5039605;28;20052;-78
2023/06/13 08:10:04;;;;;;;1999.90;999.90;;;17.90;39.90;;;;;;5039684;28;20535;-82
2023/06/13 08:12:30;;;;;;;1999.90;999.90;;;18.00;42.00;;;;;;5041833;28;20052;-82
2023/06/13 08:14:56;;;;;;;1999.90;999.90;;;18.10;40.90;;;;;;5030502;28;20042;-82
2023/06/13 08:17:21;;;;;;;1999.90;999.90;;;18.20;41.40;;;;;;5016894;28;20056;-79
2023/06/13 08:19:48;;;;;;;1999.90;999.90;;;18.60;40.80;;;;;;5032901;28;20049;-80
2023/06/13 08:22:15;;;;;;;1999.90;999.90;;;18.40;40.80;;;;;;5011182;28;20083;-83
2023/06/13 08:24:40;;;;;;;1999.90;999.90;;;18.60;40.10;;;;;;5032078;28;20052;-78
2023/06/13 08:27:13;;;;;;;1999.90;999.90;;;18.60;38.00;;;;;;5035687;28;20489;-79
2023/06/13 08:29:39;;;;;;;1999.90;999.90;;;18.70;39.60;;;;;;5037577;28;20030;-86
2023/06/13 08:32:05;;;;;;;1999.90;999.90;;;19.10;37.40;;;;;;5034720;28;20416;-83
2023/06/13 08:34:30;;;;;;;1999.90;999.90;;;19.20;39.40;;;;;;5032540;28;20029;-83
2023/06/13 08:36:56;;;;;;;1999.90;999.90;;;19.00;36.50;;;;;;5037321;28;20053;-86
2023/06/13 08:39:22;;;;;;;1999.90;999.90;;;19.00;36.20;;;;;;5033899;28;20037;-85
2023/06/13 08:41:49;;;;;;;1999.90;999.90;;;19.20;36.20;;;;;;5030192;28;20039;-83
2023/06/13 08:44:17;;;;;;;1999.90;999.90;;;19.30;36.40;;;;;;5030857;28;20024;-83
2023/06/13 08:46:42;;;;;;;1999.90;999.90;;;19.30;34.60;;;;;;5036859;28;20044;-80
2023/06/13 08:49:09;;;;;;;1999.90;999.90;;;19.20;34.40;;;;;;5037538;28;20046;-86
2023/06/13 08:51:36;;;;;;;1999.90;999.90;;;19.60;37.20;;;;;;5035830;28;20025;-84
2023/06/13 08:54:04;;;;;;;1999.90;999.90;;;19.70;36.30;;;;;;5033055;28;20032;-84
2023/06/13 08:56:34;;;;;;;1999.90;999.90;;;20.20;36.00;;;;;;5037138;28;20030;-85
2023/06/13 08:59:08;;;;;;;1999.90;999.90;;;20.40;33.10;;;;;;5032980;28;20032;-84
2023/06/13 09:01:40;;;;;;;1999.90;999.90;;;20.20;32.60;;;;;;5034316;28;20034;-84
2023/06/13 09:04:10;;;;;;;1999.90;999.90;;;20.10;32.60;;;;;;5034412;28;20053;-83
2023/06/13 09:06:37;;;;;;;1999.90;999.90;;;20.40;33.10;;;;;;5032748;28;20100;-84
2023/06/13 09:09:07;;;;;;;1999.90;999.90;;;20.40;32.50;;;;;;5032821;28;20513;-79
2023/06/13 09:11:36;;;;;;;1999.90;999.90;;;20.20;32.00;;;;;;5035758;28;20041;-83
2023/06/13 09:14:04;;;;;;;1999.90;999.90;;;20.00;33.10;;;;;;5032813;28;20389;-81
2023/06/13 09:16:31;;;;;;;1999.90;999.90;;;20.20;30.40;;;;;;5039107;28;20021;-81
2023/06/13 09:18:57;;;;;;;1999.90;999.90;;;20.40;30.10;;;;;;5032459;28;20018;-81
2023/06/13 09:21:23;;;;;;;1999.90;999.90;;;20.80;30.90;;;;;;5035362;28;20042;-83
2023/06/13 09:23:49;;;;;;;1999.90;999.90;;;20.70;30.00;;;;;;5035629;28;20049;-83
2023/06/13 09:26:18;;;;;;;1999.90;999.90;;;20.70;32.30;;;;;;5028537;28;20029;-82
2023/06/13 09:28:47;;;;;;;1999.90;999.90;;;21.10;31.20;;;;;;5032421;28;20021;-82
2023/06/13 09:31:13;;;;;;;1999.90;999.90;;;21.00;29.40;;;;;;5032078;28;20505;-81
2023/06/13 09:33:39;;;;;;;1999.90;999.90;;;21.10;30.00;;;;;;5033517;28;20045;-83
2023/06/13 09:36:06;;;;;;;1999.90;999.90;;;21.20;29.60;;;;;;5034619;28;20037;-81
2023/06/13 09:38:36;;;;;;;1999.90;999.90;;;21.30;28.90;;;;;;5032516;28;20053;-81
2023/06/13 09:41:04;;;;;;;1999.90;999.90;;;21.30;30.00;;;;;;5033156;28;20043;-85
2023/06/13 09:43:30;;;;;;;1999.90;999.90;;;21.00;27.60;;;;;;5031924;28;20034;-81
2023/06/13 09:45:56;;;;;;;1999.90;999.90;;;21.00;27.90;;;;;;5044556;28;20063;-82
2023/06/13 09:48:22;;;;;;;1999.90;999.90;;;20.90;27.30;;;;;;5039018;28;20036;-86
2023/06/13 09:50:50;;;;;;;1999.90;999.90;;;21.20;28.90;;;;;;5029664;28;20033;-84
2023/06/13 09:53:16;;;;;;;1999.90;999.90;;;21.40;26.80;;;;;;5030174;28;20028;-80
2023/06/13 09:55:42;;;;;;;1999.90;999.90;;;21.40;27.40;;;;;;5031876;28;20128;-85
2023/06/13 09:58:08;;;;;;;1999.90;999.90;;;21.70;27.60;;;;;;5030322;28;20037;-85
2023/06/13 10:00:35;;;;;;;1999.90;999.90;;;21.90;26.00;;;;;;5032591;28;20029;-85
2023/06/13 10:03:02;;;;;;;1999.90;999.90;;;21.80;28.30;;;;;;5034685;28;20044;-85
2023/06/13 10:05:28;;;;;;;1999.90;999.90;;;21.70;27.70;;;;;;5031040;28;20025;-85
2023/06/13 10:07:54;;;;;;;1999.90;999.90;;;22.10;25.10;;;;;;5042885;28;20033;-84
2023/06/13 10:10:20;;;;;;;1999.90;999.90;;;21.90;25.30;;;;;;5015394;28;20507;-86
2023/06/13 10:13:09;;;;;;;1999.90;999.90;;;21.80;24.70;;;;;;5036123;28;20033;-85
2023/06/13 10:15:51;;;;;;;1999.90;999.90;;;21.90;24.40;;;;;;5034306;28;20025;-86
2023/06/13 10:18:20;;;;;;;1999.90;999.90;;;21.80;24.30;;;;;;5035766;28;20029;-85
2023/06/13 10:20:48;;;;;;;1999.90;999.90;;;22.30;25.30;;;;;;5036009;28;20064;-85
2023/06/13 10:23:18;;;;;;;1999.90;999.90;;;22.40;25.80;;;;;;5021797;28;20159;-84
2023/06/13 10:25:47;;;;;;;1999.90;999.90;;;22.70;25.30;;;;;;5019843;28;20083;-86
2023/06/13 10:28:47;;;;;;;1999.90;999.90;;;22.60;22.60;;;;;;5037611;28;20108;-85
2023/06/13 10:31:46;;;;;;;1999.90;999.90;;;22.50;23.10;;;;;;5033459;28;20048;-85
2023/06/13 10:34:42;;;;;;;1999.90;999.90;;;22.70;23.00;;;;;;5038598;28;20036;-85
2023/06/13 10:37:20;;;;;;;1999.90;999.90;;;22.80;22.10;;;;;;5036396;28;20500;-83
2023/06/13 10:40:22;;;;;;;1999.90;999.90;;;22.80;22.70;;;;;;5031320;28;20040;-81
2023/06/13 10:43:32;;;;;;;1999.90;999.90;;;22.40;22.40;;;;;;5050062;28;20039;-87
2023/06/13 10:46:05;;;;;;;1999.90;999.90;;;22.70;23.10;;;;;;5032581;28;20045;-86
2023/06/13 10:48:34;;;;;;;1999.90;999.90;;;22.80;22.20;;;;;;5036340;28;20033;-86
2023/06/13 10:51:00;;;;;;;1999.90;999.90;;;23.10;22.40;;;;;;5014576;28;20546;-80
2023/06/13 10:53:31;;;;;;;1999.90;999.90;;;22.80;22.70;;;;;;5033583;28;20065;-80
2023/06/13 10:56:01;;;;;;;1999.90;999.90;;;23.10;22.20;;;;;;5032782;28;20051;-81
2023/06/13 10:58:27;;;;;;;;;;;23.60;21.70;;;;;;5039558;28;20136;-81
2023/06/13 11:00:53;;;;;;;1999.90;999.90;;;23.70;22.40;;;;;;5036523;28;20503;-84
2023/06/13 11:03:19;;;;;;;1999.90;999.90;;;23.70;22.20;;;;;;5030564;28;20112;-85
2023/06/13 11:05:44;;;;;;;1999.90;999.90;;;24.20;22.70;;;;;;5039577;28;20476;-84
2023/06/13 11:08:14;;;;;;;1999.90;999.90;;;23.60;21.60;;;;;;5037106;28;20037;-85
2023/06/13 11:10:42;;;;;;;1999.90;999.90;;;24.20;21.70;;;;;;5034245;28;20659;-84
2023/06/13 11:13:26;;;;;;;1999.90;999.90;;;24.80;19.90;;;;;;5036169;28;20041;-84
2023/06/13 11:15:56;;;;;;;1999.90;999.90;;;25.80;19.70;;;;;;5029777;28;20040;-83
2023/06/13 11:18:22;;;;;;;1999.90;999.90;;;25.90;19.20;;;;;;5034919;28;20045;-83
2023/06/13 11:20:53;;;;;;;1999.90;999.90;;;25.70;19.90;;;;;;5032172;28;20044;-85
2023/06/13 11:23:23;;;;;;;1999.90;999.90;;;25.60;19.80;;;;;;5031866;28;20075;-89
2023/06/13 11:25:52;;;;;;;1999.90;999.90;;;25.50;18.00;;;;;;5031809;28;20484;-91
2023/06/13 11:28:18;;;;;;;1999.90;999.90;;;25.70;19.20;;;;;;5034785;28;20042;-90
2023/06/13 11:30:47;;;;;;;1999.90;999.90;;;25.50;17.30;;;;;;5035920;28;20095;-90
2023/06/13 11:33:13;;;;;;;1999.90;999.90;;;25.40;18.90;;;;;;5032464;28;20488;-83
2023/06/13 11:35:50;;;;;;;1999.90;999.90;;;25.90;18.20;;;;;;5033315;28;20146;-82
2023/06/13 11:38:21;;;;;;;1999.90;999.90;;;25.60;18.40;;;;;;5039217;28;20025;-86
2023/06/13 11:40:54;;;;;;;1999.90;999.90;;;25.30;17.40;;;;;;5027595;28;20057;-87
2023/06/13 11:43:20;;;;;;;1999.90;999.90;;;25.50;18.20;;;;;;5039507;28;20587;-85
2023/06/13 11:45:46;;;;;;;1999.90;999.90;;;25.90;18.70;;;;;;5033312;28;20029;-85
2023/06/13 11:48:22;;;;;;;1999.90;999.90;;;26.30;16.90;;;;;;5033213;28;20057;-84
2023/06/13 11:50:48;;;;;;;1999.90;999.90;;;26.80;18.30;;;;;;5033181;28;20033;-85
2023/06/13 11:53:13;;;;;;;1999.90;999.90;;;27.10;17.60;;;;;;5036560;28;20075;-85
2023/06/13 11:55:39;;;;;;;1999.90;999.90;;;27.00;18.10;;;;;;5035923;28;20038;-84
2023/06/13 11:58:05;;;;;;;1999.90;999.90;;;27.00;16.50;;;;;;5035502;28;20046;-88
2023/06/13 12:00:53;;;;;;;1999.90;999.90;;;26.70;16.80;;;;;;5028529;28;20047;-85
2023/06/13 12:03:21;;;;;;;1999.90;999.90;;;26.80;17.80;;;;;;5018928;28;20033;-86
2023/06/13 12:05:47;;;;;;;1999.90;999.90;;;26.80;15.60;;;;;;5035962;28;20423;-85
2023/06/13 12:08:15;;;;;;;1999.90;999.90;;;26.80;16.60;;;;;;5034208;28;20033;-84